Terminal Aerodrome Forecast
Issued by NWS Burlington, VT

Home | Current Version | Previous Version | Text Only | Print | Product List | Glossary On
Versions: 1 2 3 4 5 6 7 8 9 10 11 12 13 14 15 16 17 18 19 20
000
FTUS41 KBTV 200500
TAFBTV
TAF
KBTV 200520Z 2006/2106 31007KT P6SM SCT050
     FM201200 18005KT P6SM SCT060 BKN150
     FM202100 18007KT P6SM SCT050 OVC080=

USA.gov is the U.S. government's official web portal to all federal, state and local government web resources and services.